createdAt,value
2023-01-11T00:01:09.071Z,5.80
2023-01-11T00:03:36.149Z,5.80
2023-01-11T00:06:03.281Z,5.80
2023-01-11T00:08:30.426Z,5.80
2023-01-11T00:10:57.418Z,5.80
2023-01-11T00:13:24.437Z,5.80
2023-01-11T00:15:51.646Z,5.80
2023-01-11T00:18:18.709Z,5.80
2023-01-11T00:20:45.962Z,5.90
2023-01-11T00:23:13.378Z,5.90
2023-01-11T00:25:40.581Z,5.90
2023-01-11T00:28:07.655Z,5.90
2023-01-11T00:30:35.973Z,6.00
2023-01-11T00:33:03.273Z,6.00
2023-01-11T00:35:32.341Z,6.00
2023-01-11T00:37:59.673Z,6.00
2023-01-11T00:40:27.233Z,6.00
2023-01-11T00:43:13.034Z,6.00
2023-01-11T00:45:59.072Z,6.00
2023-01-11T00:48:26.112Z,6.10
2023-01-11T00:50:57.375Z,6.10
2023-01-11T00:53:24.414Z,6.10
2023-01-11T00:55:51.409Z,6.10
2023-01-11T00:58:18.517Z,6.10
2023-01-11T01:00:45.540Z,6.20
2023-01-11T01:03:12.599Z,6.20
2023-01-11T01:05:39.620Z,6.30
2023-01-11T01:08:07.415Z,6.30
2023-01-11T01:10:34.525Z,6.30
2023-01-11T01:13:20.219Z,6.40
2023-01-11T01:15:47.336Z,6.30
2023-01-11T01:18:14.448Z,6.40
2023-01-11T01:20:41.431Z,6.50
2023-01-11T01:23:08.637Z,6.50
2023-01-11T01:25:38.049Z,6.60
2023-01-11T01:28:05.278Z,6.60
2023-01-11T01:30:33.864Z,6.70
2023-01-11T01:33:00.966Z,6.70
2023-01-11T01:35:28.107Z,6.80
2023-01-11T01:37:55.127Z,6.80
2023-01-11T01:40:22.930Z,6.80
2023-01-11T01:42:54.281Z,6.80
2023-01-11T01:45:26.663Z,6.90
2023-01-11T01:47:53.669Z,6.90
2023-01-11T01:50:27.561Z,6.90
2023-01-11T01:53:00.280Z,6.90
2023-01-11T01:55:31.488Z,6.90
2023-01-11T01:58:00.436Z,6.90
2023-01-11T02:00:27.581Z,7.00
2023-01-11T02:02:57.902Z,7.00
2023-01-11T02:05:25.069Z,7.00
2023-01-11T02:07:54.849Z,7.00
2023-01-11T02:10:23.176Z,7.00
2023-01-11T02:13:02.693Z,7.00
2023-01-11T02:15:30.604Z,7.00
2023-01-11T02:17:57.851Z,7.10
2023-01-11T02:20:27.888Z,7.00
2023-01-11T02:23:23.180Z,7.00
2023-01-11T02:26:17.447Z,7.00
2023-01-11T02:29:00.923Z,6.90
2023-01-11T02:31:43.257Z,6.90
2023-01-11T02:34:25.507Z,6.90
2023-01-11T02:37:27.659Z,6.90
2023-01-11T02:40:22.757Z,6.90
2023-01-11T02:43:50.414Z,6.90
2023-01-11T02:46:31.296Z,6.90
2023-01-11T02:49:33.389Z,6.90
2023-01-11T02:52:17.799Z,6.90
2023-01-11T02:54:54.182Z,6.90
2023-01-11T02:57:23.040Z,6.90
2023-01-11T02:59:50.961Z,6.90
2023-01-11T03:02:18.264Z,7.00
2023-01-11T03:04:45.344Z,6.90
2023-01-11T03:07:39.698Z,7.00
2023-01-11T03:10:34.450Z,7.00
2023-01-11T03:13:30.126Z,7.00
2023-01-11T03:16:21.586Z,7.00
2023-01-11T03:19:12.592Z,7.00
2023-01-11T03:21:54.288Z,7.00
2023-01-11T03:24:27.555Z,7.00
2023-01-11T03:27:00.452Z,7.10
2023-01-11T03:29:36.081Z,7.10
2023-01-11T03:32:38.379Z,7.10
2023-01-11T03:35:33.981Z,7.10
2023-01-11T03:38:06.728Z,7.20
2023-01-11T03:40:38.110Z,7.20
2023-01-11T03:43:11.714Z,7.20
2023-01-11T03:45:46.021Z,7.20
2023-01-11T03:48:18.136Z,7.20
2023-01-11T03:50:48.115Z,7.30
2023-01-11T03:53:17.989Z,7.30
2023-01-11T03:55:48.368Z,7.30
2023-01-11T03:58:15.567Z,7.40
2023-01-11T04:00:43.040Z,7.50
2023-01-11T04:03:12.737Z,7.50
2023-01-11T04:05:43.954Z,7.50
2023-01-11T04:08:11.789Z,7.60
2023-01-11T04:10:39.496Z,7.70
2023-01-11T04:13:06.499Z,7.70
2023-01-11T04:15:34.976Z,7.80
2023-01-11T04:18:05.915Z,7.80
2023-01-11T04:20:34.301Z,7.90
2023-01-11T04:23:01.660Z,7.90
2023-01-11T04:25:28.907Z,7.90
2023-01-11T04:27:56.056Z,7.90
2023-01-11T04:30:23.183Z,7.90
2023-01-11T04:32:50.514Z,7.90
2023-01-11T04:35:17.964Z,7.90
2023-01-11T04:37:45.102Z,8.00
2023-01-11T04:40:12.519Z,7.90
2023-01-11T04:42:39.497Z,8.00
2023-01-11T04:45:07.138Z,8.00
2023-01-11T04:47:34.239Z,8.00
2023-01-11T04:50:01.674Z,8.00
2023-01-11T04:52:28.734Z,8.00
2023-01-11T04:54:55.849Z,8.00
2023-01-11T04:57:23.199Z,8.00
2023-01-11T04:59:50.329Z,8.00
2023-01-11T05:02:17.729Z,8.00
2023-01-11T05:04:45.286Z,8.00
2023-01-11T05:07:12.363Z,8.00
2023-01-11T05:09:40.968Z,8.00
2023-01-11T05:12:08.022Z,8.00
2023-01-11T05:14:35.042Z,8.00
2023-01-11T05:17:02.169Z,8.00
2023-01-11T05:19:29.260Z,8.00
2023-01-11T05:21:56.260Z,8.10
2023-01-11T05:24:23.513Z,8.10
2023-01-11T05:26:52.569Z,8.10
2023-01-11T05:29:21.278Z,8.10
2023-01-11T05:31:48.755Z,8.10
2023-01-11T05:34:17.162Z,8.10
2023-01-11T05:36:44.911Z,8.10
2023-01-11T05:39:13.878Z,8.10
2023-01-11T05:41:41.163Z,8.10
2023-01-11T05:44:29.997Z,8.20
2023-01-11T05:46:58.095Z,8.20
2023-01-11T05:49:25.258Z,8.20
2023-01-11T05:51:52.313Z,8.20
2023-01-11T05:54:19.472Z,8.20
2023-01-11T05:56:46.479Z,8.20
2023-01-11T05:59:13.607Z,8.20
2023-01-11T06:01:40.827Z,8.20
2023-01-11T06:04:08.725Z,8.30
2023-01-11T06:06:36.330Z,8.30
2023-01-11T06:09:03.520Z,8.30
2023-01-11T06:11:30.612Z,8.30
2023-01-11T06:13:58.979Z,8.30
2023-01-11T06:16:26.122Z,8.30
2023-01-11T06:18:54.422Z,8.30
2023-01-11T06:21:21.800Z,8.30
2023-01-11T06:23:52.905Z,8.40
2023-01-11T06:26:22.586Z,8.40
2023-01-11T06:28:50.269Z,8.40
2023-01-11T06:31:18.365Z,8.40
2023-01-11T06:33:46.524Z,8.40
2023-01-11T06:36:14.485Z,8.40
2023-01-11T06:38:42.223Z,8.40
2023-01-11T06:41:10.153Z,8.40
2023-01-11T06:43:38.728Z,8.40
2023-01-11T06:46:06.059Z,8.40
2023-01-11T06:48:33.170Z,8.40
2023-01-11T06:51:00.214Z,8.40
2023-01-11T06:53:29.337Z,8.50
2023-01-11T06:55:58.043Z,8.50
2023-01-11T06:58:26.360Z,8.50
2023-01-11T07:00:55.487Z,8.50
2023-01-11T07:03:26.781Z,8.50
2023-01-11T07:05:56.953Z,8.50
2023-01-11T07:08:28.025Z,8.60
2023-01-11T07:10:55.109Z,8.60
2023-01-11T07:13:23.745Z,8.60
2023-01-11T07:15:51.946Z,8.60
2023-01-11T07:18:20.259Z,8.60
2023-01-11T07:20:47.682Z,8.60
2023-01-11T07:23:14.918Z,8.60
2023-01-11T07:25:42.056Z,8.60
2023-01-11T07:28:09.655Z,8.60
2023-01-11T07:30:56.825Z,8.70
2023-01-11T07:33:26.108Z,8.70
2023-01-11T07:35:53.545Z,8.70
2023-01-11T07:38:20.629Z,8.70
2023-01-11T07:40:47.676Z,8.70
2023-01-11T07:43:15.451Z,8.70
2023-01-11T07:45:49.612Z,8.70
2023-01-11T07:48:21.571Z,8.70
2023-01-11T07:50:49.157Z,8.70
2023-01-11T07:53:16.951Z,8.70
2023-01-11T07:55:44.410Z,8.70
2023-01-11T07:58:12.928Z,8.70
2023-01-11T08:00:41.279Z,8.70
2023-01-11T08:03:08.964Z,8.80
2023-01-11T08:05:36.176Z,8.70
2023-01-11T08:08:03.581Z,8.80
2023-01-11T08:10:30.780Z,8.80
2023-01-11T08:13:16.837Z,8.80
2023-01-11T08:15:44.207Z,8.80
2023-01-11T08:18:13.341Z,8.90
2023-01-11T08:20:40.989Z,8.90
2023-01-11T08:23:10.094Z,8.90
2023-01-11T08:25:38.482Z,8.90
2023-01-11T08:28:07.218Z,8.90
2023-01-11T08:30:35.379Z,9.00
2023-01-11T08:33:03.053Z,9.00
2023-01-11T08:35:31.256Z,9.00
2023-01-11T08:37:59.275Z,9.00
2023-01-11T08:40:26.339Z,9.00
2023-01-11T08:42:57.021Z,9.00
2023-01-11T08:45:24.562Z,9.00
2023-01-11T08:47:52.330Z,9.00
2023-01-11T08:50:20.195Z,9.00
2023-01-11T08:52:48.534Z,9.00
2023-01-11T08:55:15.614Z,9.00
2023-01-11T08:57:42.696Z,9.00
2023-01-11T09:00:10.302Z,9.00
2023-01-11T09:02:37.362Z,9.00
2023-01-11T09:05:05.296Z,8.90
2023-01-11T09:07:32.270Z,9.00
2023-01-11T09:09:59.317Z,9.00
2023-01-11T09:12:27.777Z,9.00
2023-01-11T09:14:54.812Z,9.00
2023-01-11T09:17:21.889Z,9.00
2023-01-11T09:19:48.919Z,9.00
2023-01-11T09:22:16.692Z,9.00
2023-01-11T09:24:44.817Z,9.00
2023-01-11T09:27:12.045Z,9.00
2023-01-11T09:29:39.322Z,9.00
2023-01-11T09:32:06.897Z,9.00
2023-01-11T09:34:35.108Z,9.00
2023-01-11T09:37:04.802Z,9.00
2023-01-11T09:39:33.268Z,9.00
2023-01-11T09:42:17.888Z,9.00
2023-01-11T09:44:54.921Z,9.00
2023-01-11T09:47:36.868Z,9.00
2023-01-11T09:50:12.922Z,9.00
2023-01-11T09:52:43.970Z,9.00
2023-01-11T09:55:25.258Z,9.00
2023-01-11T09:58:21.908Z,9.00
2023-01-11T10:01:10.652Z,9.00
2023-01-11T10:04:06.519Z,9.00
2023-01-11T10:06:38.121Z,9.00
2023-01-11T10:18:31.923Z,8.90
2023-01-11T10:19:04.580Z,8.90
2023-01-11T10:21:46.598Z,8.90
2023-01-11T10:24:22.790Z,8.90
2023-01-11T10:26:53.718Z,8.90
2023-01-11T10:29:57.682Z,8.90
2023-01-11T10:33:02.782Z,8.90
2023-01-11T10:36:06.205Z,8.90
2023-01-11T10:38:59.030Z,8.90
2023-01-11T10:41:34.282Z,8.90
2023-01-11T10:44:10.923Z,9.00
2023-01-11T10:46:44.671Z,9.00
2023-01-11T10:49:35.533Z,9.00
2023-01-11T10:52:35.313Z,9.00
2023-01-11T10:55:13.147Z,9.00
2023-01-11T10:58:11.262Z,9.00
2023-01-11T11:00:51.587Z,9.00
2023-01-11T11:03:54.462Z,9.00
2023-01-11T11:06:47.113Z,9.00
2023-01-11T11:09:26.157Z,9.00
2023-01-11T11:12:11.955Z,9.00
2023-01-11T11:15:03.815Z,9.00
2023-01-11T11:17:39.485Z,9.00
2023-01-11T11:20:25.198Z,9.00
2023-01-11T11:22:54.246Z,9.00
2023-01-11T11:25:30.531Z,9.00
2023-01-11T11:28:04.096Z,9.00
2023-01-11T11:30:31.202Z,9.00
2023-01-11T11:33:06.013Z,9.00
2023-01-11T11:35:42.562Z,9.00
2023-01-11T11:38:24.101Z,9.00
2023-01-11T11:41:17.586Z,8.90
2023-01-11T11:43:47.465Z,8.90
2023-01-11T11:46:18.766Z,8.90
2023-01-11T11:49:16.125Z,8.90
2023-01-11T11:51:45.745Z,8.80
2023-01-11T11:54:32.442Z,8.80
2023-01-11T11:57:35.949Z,8.70
2023-01-11T12:00:07.698Z,8.70
2023-01-11T12:02:38.793Z,8.70
2023-01-11T12:05:10.150Z,8.60
2023-01-11T12:07:54.747Z,8.60
2023-01-11T12:10:27.514Z,8.60
2023-01-11T12:13:00.025Z,8.60
2023-01-11T12:15:30.393Z,8.60
2023-01-11T12:18:41.622Z,8.50
2023-01-11T12:21:26.864Z,8.50
2023-01-11T12:24:19.684Z,8.50
2023-01-11T12:27:05.088Z,8.50
2023-01-11T12:29:35.405Z,8.50
2023-01-11T12:32:11.860Z,8.50
2023-01-11T12:34:53.540Z,8.40
2023-01-11T12:37:33.074Z,8.50
2023-01-11T12:40:12.339Z,8.50
2023-01-11T12:42:50.247Z,8.50
2023-01-11T12:45:20.102Z,8.50
2023-01-11T12:47:58.906Z,8.50
2023-01-11T12:50:28.642Z,8.50
2023-01-11T12:53:26.783Z,8.50
2023-01-11T12:56:39.568Z,8.40
2023-01-11T12:59:41.645Z,8.40
2023-01-11T13:02:42.332Z,8.40
2023-01-11T13:05:18.349Z,8.30
2023-01-11T13:08:11.898Z,8.20
2023-01-11T13:10:56.649Z,8.20
2023-01-11T13:13:44.053Z,8.10
2023-01-11T13:16:38.508Z,8.10
2023-01-11T13:19:14.696Z,8.20
2023-01-11T13:21:53.340Z,8.10
2023-01-11T13:24:42.331Z,8.20
2023-01-11T13:27:15.837Z,8.20
2023-01-11T13:29:54.629Z,8.20
2023-01-11T13:32:30.016Z,8.10
2023-01-11T13:35:17.410Z,8.10
2023-01-11T13:38:22.439Z,8.10
2023-01-11T13:40:53.774Z,8.10
2023-01-11T13:43:43.688Z,8.30
2023-01-11T13:46:40.326Z,8.70
2023-01-11T13:49:32.188Z,9.00
2023-01-11T13:52:04.321Z,9.20
2023-01-11T13:54:52.537Z,9.30
2023-01-11T13:57:58.316Z,9.40
2023-01-11T14:01:08.430Z,9.50
2023-01-11T14:03:57.053Z,9.60
2023-01-11T14:06:54.472Z,9.60
2023-01-11T14:09:30.361Z,9.70
2023-01-11T14:12:03.564Z,9.70
2023-01-11T14:14:54.334Z,9.60
2023-01-11T14:17:40.300Z,9.50
2023-01-11T14:20:32.349Z,9.30
2023-01-11T14:23:12.064Z,9.10
2023-01-11T14:26:00.046Z,9.10
2023-01-11T14:28:35.989Z,9.00
2023-01-11T14:31:41.059Z,9.00
2023-01-11T14:34:30.861Z,8.90
2023-01-11T14:37:30.230Z,8.90
2023-01-11T14:40:20.224Z,8.90
2023-01-11T14:43:13.110Z,9.00
2023-01-11T14:45:49.005Z,9.00
2023-01-11T14:48:31.303Z,9.00
2023-01-11T14:51:17.041Z,9.00
2023-01-11T14:53:52.286Z,9.10
2023-01-11T14:56:48.270Z,9.10
2023-01-11T14:59:36.286Z,9.10
2023-01-11T15:02:03.430Z,9.00
2023-01-11T15:04:36.367Z,9.00
2023-01-11T15:07:22.711Z,8.90
2023-01-11T15:09:52.362Z,8.80
2023-01-11T15:12:25.924Z,8.70
2023-01-11T15:15:08.495Z,8.70
2023-01-11T15:17:54.055Z,8.60
2023-01-11T15:20:23.291Z,8.60
2023-01-11T15:23:01.182Z,8.50
2023-01-11T15:25:34.124Z,8.50
2023-01-11T15:28:33.482Z,8.50
2023-01-11T15:31:04.327Z,8.40
2023-01-11T15:33:48.947Z,8.40
2023-01-11T15:36:16.091Z,8.30
2023-01-11T15:39:02.208Z,8.20
2023-01-11T15:42:04.400Z,8.20
2023-01-11T15:44:46.353Z,8.20
2023-01-11T15:47:43.986Z,8.10
2023-01-11T15:50:29.635Z,8.00
2023-01-11T15:52:59.810Z,8.00
2023-01-11T15:55:48.312Z,7.90
2023-01-11T15:58:33.904Z,7.90
2023-01-11T16:01:22.180Z,7.90
2023-01-11T16:04:04.192Z,7.80
2023-01-11T16:06:40.209Z,7.80
2023-01-11T16:09:27.465Z,7.80
2023-01-11T16:12:28.059Z,7.80
2023-01-11T16:15:12.567Z,7.70
2023-01-11T16:17:42.974Z,7.70
2023-01-11T16:20:19.032Z,7.70
2023-01-11T16:23:06.002Z,7.70
2023-01-11T16:25:37.048Z,7.70
2023-01-11T16:28:05.095Z,7.60
2023-01-11T16:30:33.586Z,7.60
2023-01-11T16:33:31.421Z,7.50
2023-01-11T16:36:10.774Z,7.50
2023-01-11T16:39:03.964Z,7.40
2023-01-11T16:41:46.524Z,7.50
2023-01-11T16:44:30.709Z,7.40
2023-01-11T16:47:11.584Z,7.40
2023-01-11T16:49:40.027Z,7.40
2023-01-11T16:52:28.608Z,7.40
2023-01-11T16:54:57.648Z,7.50
2023-01-11T16:57:35.959Z,7.50
2023-01-11T17:00:07.461Z,7.50
2023-01-11T17:02:40.237Z,7.40
2023-01-11T17:05:18.574Z,7.40
2023-01-11T17:07:45.643Z,7.40
2023-01-11T17:10:28.246Z,7.40
2023-01-11T17:13:45.908Z,7.40
2023-01-11T17:16:15.714Z,7.40
2023-01-11T17:18:43.883Z,7.40
2023-01-11T17:21:22.841Z,7.40
2023-01-11T17:23:52.255Z,7.30
2023-01-11T17:26:28.008Z,7.30
2023-01-11T17:28:57.525Z,7.30
2023-01-11T17:31:29.689Z,7.20
2023-01-11T17:34:26.781Z,7.20
2023-01-11T17:36:55.263Z,7.10
2023-01-11T17:39:34.649Z,7.00
2023-01-11T17:42:25.530Z,7.00
2023-01-11T17:45:12.673Z,7.00
2023-01-11T17:47:52.465Z,7.00
2023-01-11T17:50:45.718Z,6.90
2023-01-11T17:53:12.654Z,6.90
2023-01-11T17:55:59.561Z,6.90
2023-01-11T17:58:26.567Z,6.90
2023-01-11T18:01:20.927Z,6.90
2023-01-11T18:03:50.385Z,6.80
2023-01-11T18:06:41.746Z,6.80
2023-01-11T18:09:18.521Z,6.70
2023-01-11T18:11:46.100Z,6.70
2023-01-11T18:14:25.572Z,6.70
2023-01-11T18:17:05.607Z,6.70
2023-01-11T18:19:41.412Z,6.60
2023-01-11T18:22:31.567Z,6.60
2023-01-11T18:25:02.087Z,6.50
2023-01-11T18:27:31.832Z,6.50
2023-01-11T18:30:07.831Z,6.40
2023-01-11T18:32:41.159Z,6.40
2023-01-11T18:35:19.091Z,6.40
2023-01-11T18:37:46.590Z,6.40
2023-01-11T18:40:15.441Z,6.30
2023-01-11T18:42:45.837Z,6.30
2023-01-11T18:45:13.797Z,6.30
2023-01-11T18:47:41.113Z,6.30
2023-01-11T18:50:12.099Z,6.30
2023-01-11T18:52:41.905Z,6.30
2023-01-11T18:55:12.056Z,6.30
2023-01-11T18:57:39.817Z,6.20
2023-01-11T19:00:07.606Z,6.20
2023-01-11T19:02:42.858Z,6.20
2023-01-11T19:05:18.733Z,6.20
2023-01-11T19:07:46.081Z,6.20
2023-01-11T19:10:22.776Z,6.20
2023-01-11T19:12:50.885Z,6.20
2023-01-11T19:15:17.995Z,6.10
2023-01-11T19:17:45.151Z,6.10
2023-01-11T19:20:14.348Z,6.10
2023-01-11T19:22:42.220Z,6.10
2023-01-11T19:25:09.973Z,6.10
2023-01-11T19:27:40.260Z,6.10
2023-01-11T19:30:08.033Z,6.10
2023-01-11T19:32:35.267Z,6.10
2023-01-11T19:35:02.371Z,6.10
2023-01-11T19:37:34.258Z,6.00
2023-01-11T19:40:01.427Z,6.10
2023-01-11T19:42:28.648Z,6.10
2023-01-11T19:44:55.657Z,6.10
2023-01-11T19:47:22.758Z,6.10
2023-01-11T19:49:49.979Z,6.10
2023-01-11T19:52:19.405Z,6.10
2023-01-11T19:54:47.653Z,6.10
2023-01-11T19:57:19.015Z,6.10
2023-01-11T19:59:47.020Z,6.10
2023-01-11T20:02:15.805Z,6.10
2023-01-11T20:04:43.009Z,6.10
2023-01-11T20:07:11.576Z,6.00
2023-01-11T20:09:39.035Z,6.00
2023-01-11T20:12:08.021Z,6.00
2023-01-11T20:14:36.407Z,6.00
2023-01-11T20:17:03.592Z,5.90
2023-01-11T20:19:31.607Z,6.00
2023-01-11T20:21:58.675Z,6.00
2023-01-11T20:24:28.651Z,6.10
2023-01-11T20:26:59.874Z,6.10
2023-01-11T20:29:27.211Z,6.10
2023-01-11T20:31:54.327Z,6.10
2023-01-11T20:34:21.416Z,6.10
2023-01-11T20:36:49.156Z,6.10
2023-01-11T20:39:17.598Z,6.10
2023-01-11T20:41:47.915Z,6.00
2023-01-11T20:44:20.535Z,6.10
2023-01-11T20:46:50.345Z,6.10
2023-01-11T20:49:18.739Z,6.00
2023-01-11T20:51:46.816Z,6.10
2023-01-11T20:54:14.515Z,6.10
2023-01-11T20:56:42.005Z,6.10
2023-01-11T21:01:37.807Z,6.20
2023-01-11T21:04:07.302Z,6.30
2023-01-11T21:06:38.423Z,6.30
2023-01-11T21:09:06.738Z,6.40
2023-01-11T21:11:34.251Z,6.30
2023-01-11T21:14:12.193Z,6.30
2023-01-11T21:16:44.425Z,6.40
2023-01-11T21:19:16.664Z,6.40
2023-01-11T21:21:43.875Z,6.50
2023-01-11T21:24:14.007Z,6.50
2023-01-11T21:26:42.669Z,6.60
2023-01-11T21:29:11.862Z,6.70
2023-01-11T21:31:40.708Z,6.70
2023-01-11T21:34:09.992Z,6.70
2023-01-11T21:36:37.072Z,6.80
2023-01-11T21:39:04.600Z,6.80
2023-01-11T21:41:51.879Z,6.90
2023-01-11T21:44:21.451Z,6.90
2023-01-11T21:46:49.474Z,6.90
2023-01-11T21:49:18.099Z,6.90
2023-01-11T21:51:45.165Z,6.90
2023-01-11T21:54:14.978Z,6.90
2023-01-11T21:56:42.161Z,6.90
2023-01-11T21:59:09.711Z,6.90
2023-01-11T22:01:38.702Z,6.90
2023-01-11T22:04:11.564Z,6.90
2023-01-11T22:06:40.475Z,6.90
2023-01-11T22:09:10.282Z,6.90
2023-01-11T22:11:37.438Z,7.00
2023-01-11T22:14:06.831Z,7.00
2023-01-11T22:16:35.128Z,7.00
2023-01-11T22:19:03.013Z,7.00
2023-01-11T22:21:30.194Z,7.00
2023-01-11T22:23:58.794Z,7.00
2023-01-11T22:26:27.131Z,7.10
2023-01-11T22:29:14.262Z,7.10
2023-01-11T22:31:44.241Z,7.10
2023-01-11T22:34:13.773Z,7.10
2023-01-11T22:36:41.377Z,7.10
2023-01-11T22:39:08.622Z,7.10
2023-01-11T22:41:35.666Z,7.10
2023-01-11T22:44:03.039Z,7.20
2023-01-11T22:46:30.162Z,7.20
2023-01-11T22:48:57.282Z,7.20
2023-01-11T22:51:25.874Z,7.20
2023-01-11T22:53:54.646Z,7.30
2023-01-11T22:56:25.742Z,7.30
2023-01-11T22:58:56.735Z,7.30
2023-01-11T23:01:29.162Z,7.30
2023-01-11T23:03:57.768Z,7.30
2023-01-11T23:06:26.412Z,7.30
2023-01-11T23:08:54.767Z,7.30
2023-01-11T23:11:43.491Z,7.40
2023-01-11T23:14:13.027Z,7.40
2023-01-11T23:16:40.654Z,7.50
2023-01-11T23:19:09.635Z,7.50
2023-01-11T23:21:40.386Z,7.50
2023-01-11T23:24:07.896Z,7.50
2023-01-11T23:26:35.048Z,7.60
2023-01-11T23:29:02.238Z,7.60
2023-01-11T23:31:31.989Z,7.60
2023-01-11T23:34:01.042Z,7.60
2023-01-11T23:36:34.641Z,7.60
2023-01-11T23:39:02.343Z,7.60
2023-01-11T23:41:48.347Z,7.70
2023-01-11T23:44:17.134Z,7.70
2023-01-11T23:47:03.698Z,7.70
2023-01-11T23:49:32.977Z,7.70
2023-01-11T23:52:00.604Z,7.70
2023-01-11T23:54:30.841Z,7.70
2023-01-11T23:56:59.643Z,7.70
2023-01-11T23:59:26.792Z,7.60
